sensor_id;sensor_type;location;lat;lon;timestamp;P1;durP1;ratioP1;P2;durP2;ratioP2
10144;SDS011;5113;41.822;23.564;2022-09-03T00:02:06;8.10;;;6.80;;
10144;SDS011;5113;41.822;23.564;2022-09-03T00:05:22;8.00;;;7.00;;
10144;SDS011;5113;41.822;23.564;2022-09-03T00:08:32;11.23;;;7.33;;
10144;SDS011;5113;41.822;23.564;2022-09-03T00:11:46;7.60;;;6.80;;
10144;SDS011;5113;41.822;23.564;2022-09-03T00:14:59;13.07;;;6.57;;
10144;SDS011;5113;41.822;23.564;2022-09-03T00:18:08;6.73;;;5.83;;
10144;SDS011;5113;41.822;23.564;2022-09-03T00:21:34;12.67;;;6.00;;
10144;SDS011;5113;41.822;23.564;2022-09-03T00:24:43;11.30;;;5.90;;
10144;SDS011;5113;41.822;23.564;2022-09-03T00:27:52;11.13;;;5.90;;
10144;SDS011;5113;41.822;23.564;2022-09-03T00:31:04;7.80;;;5.73;;
10144;SDS011;5113;41.822;23.564;2022-09-03T00:34:18;7.97;;;6.63;;
10144;SDS011;5113;41.822;23.564;2022-09-03T00:37:30;9.47;;;6.83;;
10144;SDS011;5113;41.822;23.564;2022-09-03T00:40:45;13.73;;;12.43;;
10144;SDS011;5113;41.822;23.564;2022-09-03T00:44:08;9.10;;;6.53;;
10144;SDS011;5113;41.822;23.564;2022-09-03T00:47:32;7.47;;;6.13;;
10144;SDS011;5113;41.822;23.564;2022-09-03T00:50:46;7.77;;;5.63;;
10144;SDS011;5113;41.822;23.564;2022-09-03T00:54:08;6.83;;;5.93;;
10144;SDS011;5113;41.822;23.564;2022-09-03T00:57:25;8.00;;;6.57;;
10144;SDS011;5113;41.822;23.564;2022-09-03T01:00:38;6.87;;;5.50;;
10144;SDS011;5113;41.822;23.564;2022-09-03T01:03:49;12.60;;;11.50;;
10144;SDS011;5113;41.822;23.564;2022-09-03T01:07:04;19.47;;;6.67;;
10144;SDS011;5113;41.822;23.564;2022-09-03T01:10:22;8.60;;;6.53;;
10144;SDS011;5113;41.822;23.564;2022-09-03T01:13:37;9.83;;;7.00;;
10144;SDS011;5113;41.822;23.564;2022-09-03T01:16:50;7.20;;;5.40;;
10144;SDS011;5113;41.822;23.564;2022-09-03T01:20:05;7.83;;;6.17;;
10144;SDS011;5113;41.822;23.564;2022-09-03T01:23:43;11.87;;;6.83;;
10144;SDS011;5113;41.822;23.564;2022-09-03T01:27:11;9.67;;;6.37;;
10144;SDS011;5113;41.822;23.564;2022-09-03T01:30:31;10.30;;;6.57;;
10144;SDS011;5113;41.822;23.564;2022-09-03T01:33:43;10.93;;;8.70;;
10144;SDS011;5113;41.822;23.564;2022-09-03T01:37:00;9.40;;;6.70;;
10144;SDS011;5113;41.822;23.564;2022-09-03T01:40:16;17.77;;;10.97;;
10144;SDS011;5113;41.822;23.564;2022-09-03T01:43:34;7.80;;;5.83;;
10144;SDS011;5113;41.822;23.564;2022-09-03T01:46:51;8.07;;;6.17;;
10144;SDS011;5113;41.822;23.564;2022-09-03T01:50:09;14.80;;;7.17;;
10144;SDS011;5113;41.822;23.564;2022-09-03T01:53:26;9.57;;;6.00;;
10144;SDS011;5113;41.822;23.564;2022-09-03T01:56:48;9.10;;;6.73;;
10144;SDS011;5113;41.822;23.564;2022-09-03T02:00:04;9.57;;;6.53;;
10144;SDS011;5113;41.822;23.564;2022-09-03T02:03:15;15.77;;;14.20;;
10144;SDS011;5113;41.822;23.564;2022-09-03T02:06:22;9.63;;;6.93;;
10144;SDS011;5113;41.822;23.564;2022-09-03T02:09:29;13.80;;;7.10;;
10144;SDS011;5113;41.822;23.564;2022-09-03T02:12:36;10.30;;;9.17;;
10144;SDS011;5113;41.822;23.564;2022-09-03T02:15:47;7.20;;;5.67;;
10144;SDS011;5113;41.822;23.564;2022-09-03T02:18:58;8.37;;;6.10;;
10144;SDS011;5113;41.822;23.564;2022-09-03T02:22:08;12.37;;;6.50;;
10144;SDS011;5113;41.822;23.564;2022-09-03T02:25:14;14.73;;;5.83;;
10144;SDS011;5113;41.822;23.564;2022-09-03T02:28:21;7.20;;;6.07;;
10144;SDS011;5113;41.822;23.564;2022-09-03T02:31:29;10.03;;;6.10;;
10144;SDS011;5113;41.822;23.564;2022-09-03T02:34:37;10.03;;;6.10;;
10144;SDS011;5113;41.822;23.564;2022-09-03T02:37:44;8.83;;;6.13;;
10144;SDS011;5113;41.822;23.564;2022-09-03T02:40:50;7.47;;;5.53;;
10144;SDS011;5113;41.822;23.564;2022-09-03T02:43:59;8.43;;;5.43;;
10144;SDS011;5113;41.822;23.564;2022-09-03T02:47:08;6.60;;;5.90;;
10144;SDS011;5113;41.822;23.564;2022-09-03T02:50:16;12.50;;;6.73;;
10144;SDS011;5113;41.822;23.564;2022-09-03T02:53:22;6.63;;;5.60;;
10144;SDS011;5113;41.822;23.564;2022-09-03T02:56:29;6.33;;;4.57;;
10144;SDS011;5113;41.822;23.564;2022-09-03T02:59:35;9.30;;;6.10;;
10144;SDS011;5113;41.822;23.564;2022-09-03T03:02:43;11.57;;;8.70;;
10144;SDS011;5113;41.822;23.564;2022-09-03T03:05:52;8.30;;;5.53;;
10144;SDS011;5113;41.822;23.564;2022-09-03T03:09:00;6.57;;;5.40;;
10144;SDS011;5113;41.822;23.564;2022-09-03T03:12:08;17.60;;;12.17;;
10144;SDS011;5113;41.822;23.564;2022-09-03T03:15:15;6.67;;;5.13;;
10144;SDS011;5113;41.822;23.564;2022-09-03T03:18:21;8.97;;;6.20;;
10144;SDS011;5113;41.822;23.564;2022-09-03T03:21:29;7.97;;;6.20;;
10144;SDS011;5113;41.822;23.564;2022-09-03T03:24:35;8.90;;;6.93;;
10144;SDS011;5113;41.822;23.564;2022-09-03T03:27:42;9.13;;;6.73;;
10144;SDS011;5113;41.822;23.564;2022-09-03T03:30:49;6.80;;;5.90;;
10144;SDS011;5113;41.822;23.564;2022-09-03T03:33:55;9.93;;;6.23;;
10144;SDS011;5113;41.822;23.564;2022-09-03T03:37:04;11.10;;;6.17;;
10144;SDS011;5113;41.822;23.564;2022-09-03T03:40:11;6.20;;;5.60;;
10144;SDS011;5113;41.822;23.564;2022-09-03T03:43:18;8.20;;;6.53;;
10144;SDS011;5113;41.822;23.564;2022-09-03T03:46:27;10.63;;;7.33;;
10144;SDS011;5113;41.822;23.564;2022-09-03T03:49:34;14.47;;;7.87;;
10144;SDS011;5113;41.822;23.564;2022-09-03T03:52:42;21.27;;;9.07;;
10144;SDS011;5113;41.822;23.564;2022-09-03T03:55:55;17.60;;;7.60;;
10144;SDS011;5113;41.822;23.564;2022-09-03T03:59:02;10.03;;;6.87;;
10144;SDS011;5113;41.822;23.564;2022-09-03T04:02:09;16.60;;;7.97;;
10144;SDS011;5113;41.822;23.564;2022-09-03T04:05:15;15.03;;;7.37;;
10144;SDS011;5113;41.822;23.564;2022-09-03T04:08:28;13.37;;;6.57;;
10144;SDS011;5113;41.822;23.564;2022-09-03T04:11:34;16.13;;;14.60;;
10144;SDS011;5113;41.822;23.564;2022-09-03T04:14:40;12.53;;;8.23;;
10144;SDS011;5113;41.822;23.564;2022-09-03T04:17:46;8.00;;;6.00;;
10144;SDS011;5113;41.822;23.564;2022-09-03T04:20:52;12.53;;;11.33;;
10144;SDS011;5113;41.822;23.564;2022-09-03T04:24:06;12.70;;;6.33;;
10144;SDS011;5113;41.822;23.564;2022-09-03T04:27:12;8.97;;;6.80;;
10144;SDS011;5113;41.822;23.564;2022-09-03T04:30:18;9.07;;;6.37;;
10144;SDS011;5113;41.822;23.564;2022-09-03T04:33:25;6.90;;;5.53;;
10144;SDS011;5113;41.822;23.564;2022-09-03T04:36:32;13.03;;;5.87;;
10144;SDS011;5113;41.822;23.564;2022-09-03T04:39:40;9.57;;;5.13;;
10144;SDS011;5113;41.822;23.564;2022-09-03T04:42:46;9.27;;;6.67;;
10144;SDS011;5113;41.822;23.564;2022-09-03T04:45:54;9.87;;;6.30;;
10144;SDS011;5113;41.822;23.564;2022-09-03T04:49:02;9.33;;;6.30;;
10144;SDS011;5113;41.822;23.564;2022-09-03T04:52:10;12.13;;;8.77;;
10144;SDS011;5113;41.822;23.564;2022-09-03T04:55:18;16.07;;;8.80;;
10144;SDS011;5113;41.822;23.564;2022-09-03T04:58:24;20.93;;;8.13;;
10144;SDS011;5113;41.822;23.564;2022-09-03T05:01:31;18.60;;;8.07;;
10144;SDS011;5113;41.822;23.564;2022-09-03T05:04:39;8.67;;;6.23;;
10144;SDS011;5113;41.822;23.564;2022-09-03T05:07:45;16.13;;;8.20;;
10144;SDS011;5113;41.822;23.564;2022-09-03T05:10:58;11.67;;;7.80;;
10144;SDS011;5113;41.822;23.564;2022-09-03T05:14:04;16.93;;;8.07;;
10144;SDS011;5113;41.822;23.564;2022-09-03T05:17:15;21.37;;;10.10;;
10144;SDS011;5113;41.822;23.564;2022-09-03T05:20:21;25.27;;;16.13;;
10144;SDS011;5113;41.822;23.564;2022-09-03T05:23:28;11.93;;;7.33;;
10144;SDS011;5113;41.822;23.564;2022-09-03T05:26:42;10.87;;;7.30;;
10144;SDS011;5113;41.822;23.564;2022-09-03T05:29:48;10.97;;;8.20;;
10144;SDS011;5113;41.822;23.564;2022-09-03T05:32:55;16.07;;;8.10;;
10144;SDS011;5113;41.822;23.564;2022-09-03T05:36:02;15.83;;;9.00;;
10144;SDS011;5113;41.822;23.564;2022-09-03T05:39:09;18.57;;;10.27;;
10144;SDS011;5113;41.822;23.564;2022-09-03T05:42:17;18.60;;;8.90;;
10144;SDS011;5113;41.822;23.564;2022-09-03T05:45:24;17.63;;;10.33;;
10144;SDS011;5113;41.822;23.564;2022-09-03T05:48:30;21.63;;;11.50;;
10144;SDS011;5113;41.822;23.564;2022-09-03T05:51:38;14.90;;;9.67;;
10144;SDS011;5113;41.822;23.564;2022-09-03T05:54:44;21.03;;;9.83;;
10144;SDS011;5113;41.822;23.564;2022-09-03T05:57:52;19.47;;;9.87;;
10144;SDS011;5113;41.822;23.564;2022-09-03T06:00:59;15.67;;;9.53;;
10144;SDS011;5113;41.822;23.564;2022-09-03T06:04:06;20.87;;;10.03;;
10144;SDS011;5113;41.822;23.564;2022-09-03T06:07:14;23.50;;;9.90;;
10144;SDS011;5113;41.822;23.564;2022-09-03T06:10:20;21.10;;;10.70;;
10144;SDS011;5113;41.822;23.564;2022-09-03T06:13:32;16.30;;;9.33;;
10144;SDS011;5113;41.822;23.564;2022-09-03T06:16:40;17.67;;;9.77;;
10144;SDS011;5113;41.822;23.564;2022-09-03T06:19:48;19.70;;;9.83;;
10144;SDS011;5113;41.822;23.564;2022-09-03T06:22:54;15.97;;;10.70;;
10144;SDS011;5113;41.822;23.564;2022-09-03T06:26:01;17.00;;;10.43;;
10144;SDS011;5113;41.822;23.564;2022-09-03T06:29:10;17.90;;;10.07;;
10144;SDS011;5113;41.822;23.564;2022-09-03T06:32:17;19.20;;;10.60;;
10144;SDS011;5113;41.822;23.564;2022-09-03T06:35:23;15.67;;;9.13;;
10144;SDS011;5113;41.822;23.564;2022-09-03T06:38:33;13.43;;;8.63;;
10144;SDS011;5113;41.822;23.564;2022-09-03T06:41:40;13.33;;;8.10;;
10144;SDS011;5113;41.822;23.564;2022-09-03T06:44:48;13.70;;;8.27;;
10144;SDS011;5113;41.822;23.564;2022-09-03T06:47:55;14.43;;;8.63;;
10144;SDS011;5113;41.822;23.564;2022-09-03T06:51:02;13.17;;;8.57;;
10144;SDS011;5113;41.822;23.564;2022-09-03T06:54:11;14.07;;;8.83;;
10144;SDS011;5113;41.822;23.564;2022-09-03T06:57:19;14.63;;;8.57;;
10144;SDS011;5113;41.822;23.564;2022-09-03T07:00:26;19.87;;;10.13;;
10144;SDS011;5113;41.822;23.564;2022-09-03T07:03:52;14.07;;;9.23;;
10144;SDS011;5113;41.822;23.564;2022-09-03T07:07:00;15.43;;;10.53;;
10144;SDS011;5113;41.822;23.564;2022-09-03T07:10:07;14.37;;;9.33;;
10144;SDS011;5113;41.822;23.564;2022-09-03T07:13:17;16.33;;;9.50;;
10144;SDS011;5113;41.822;23.564;2022-09-03T07:16:25;12.43;;;8.33;;
10144;SDS011;5113;41.822;23.564;2022-09-03T07:19:32;16.80;;;11.10;;
10144;SDS011;5113;41.822;23.564;2022-09-03T07:22:38;11.87;;;8.00;;
10144;SDS011;5113;41.822;23.564;2022-09-03T07:25:50;13.17;;;8.70;;
10144;SDS011;5113;41.822;23.564;2022-09-03T07:28:58;13.27;;;9.73;;
10144;SDS011;5113;41.822;23.564;2022-09-03T07:32:06;12.27;;;9.33;;
10144;SDS011;5113;41.822;23.564;2022-09-03T07:35:13;13.90;;;9.37;;
10144;SDS011;5113;41.822;23.564;2022-09-03T07:38:20;15.63;;;11.03;;
10144;SDS011;5113;41.822;23.564;2022-09-03T07:41:27;11.37;;;7.93;;
10144;SDS011;5113;41.822;23.564;2022-09-03T07:44:36;13.83;;;8.10;;
10144;SDS011;5113;41.822;23.564;2022-09-03T07:47:47;11.33;;;7.63;;
10144;SDS011;5113;41.822;23.564;2022-09-03T07:50:56;11.60;;;7.77;;
10144;SDS011;5113;41.822;23.564;2022-09-03T07:54:05;11.80;;;9.23;;
10144;SDS011;5113;41.822;23.564;2022-09-03T07:57:14;15.57;;;9.30;;
10144;SDS011;5113;41.822;23.564;2022-09-03T08:00:21;12.17;;;8.90;;
10144;SDS011;5113;41.822;23.564;2022-09-03T08:03:29;17.67;;;11.87;;
10144;SDS011;5113;41.822;23.564;2022-09-03T08:06:35;13.57;;;11.33;;
10144;SDS011;5113;41.822;23.564;2022-09-03T08:09:43;17.17;;;15.67;;
10144;SDS011;5113;41.822;23.564;2022-09-03T08:12:49;16.77;;;15.37;;
10144;SDS011;5113;41.822;23.564;2022-09-03T08:15:56;11.07;;;7.33;;
10144;SDS011;5113;41.822;23.564;2022-09-03T08:19:05;11.23;;;10.23;;
10144;SDS011;5113;41.822;23.564;2022-09-03T08:22:12;13.53;;;12.40;;
10144;SDS011;5113;41.822;23.564;2022-09-03T08:25:18;10.27;;;7.33;;
10144;SDS011;5113;41.822;23.564;2022-09-03T08:28:24;8.77;;;6.83;;
10144;SDS011;5113;41.822;23.564;2022-09-03T08:31:31;7.03;;;5.73;;
10144;SDS011;5113;41.822;23.564;2022-09-03T08:34:41;9.53;;;6.87;;
10144;SDS011;5113;41.822;23.564;2022-09-03T08:37:48;10.47;;;9.40;;
10144;SDS011;5113;41.822;23.564;2022-09-03T08:41:04;7.10;;;6.40;;
10144;SDS011;5113;41.822;23.564;2022-09-03T08:44:17;10.80;;;9.90;;
10144;SDS011;5113;41.822;23.564;2022-09-03T08:47:29;11.33;;;6.43;;
10144;SDS011;5113;41.822;23.564;2022-09-03T08:50:41;11.30;;;7.00;;
10144;SDS011;5113;41.822;23.564;2022-09-03T08:53:50;7.60;;;6.07;;
10144;SDS011;5113;41.822;23.564;2022-09-03T08:57:01;11.07;;;6.80;;
10144;SDS011;5113;41.822;23.564;2022-09-03T09:00:09;7.23;;;6.20;;
10144;SDS011;5113;41.822;23.564;2022-09-03T09:06:49;10.50;;;6.33;;
10144;SDS011;5113;41.822;23.564;2022-09-03T09:10:02;9.37;;;6.87;;
10144;SDS011;5113;41.822;23.564;2022-09-03T09:13:19;6.37;;;5.77;;
10144;SDS011;5113;41.822;23.564;2022-09-03T09:16:35;11.07;;;7.97;;
10144;SDS011;5113;41.822;23.564;2022-09-03T09:19:51;14.20;;;13.00;;
10144;SDS011;5113;41.822;23.564;2022-09-03T09:23:09;9.17;;;8.37;;
10144;SDS011;5113;41.822;23.564;2022-09-03T09:26:19;10.47;;;7.93;;
10144;SDS011;5113;41.822;23.564;2022-09-03T09:29:28;7.80;;;6.27;;
10144;SDS011;5113;41.822;23.564;2022-09-03T09:32:37;9.60;;;8.60;;
10144;SDS011;5113;41.822;23.564;2022-09-03T09:35:43;11.63;;;7.43;;
10144;SDS011;5113;41.822;23.564;2022-09-03T09:38:51;9.47;;;7.33;;
10144;SDS011;5113;41.822;23.564;2022-09-03T09:41:58;9.80;;;7.80;;
10144;SDS011;5113;41.822;23.564;2022-09-03T09:45:07;9.03;;;7.87;;
10144;SDS011;5113;41.822;23.564;2022-09-03T09:48:20;9.67;;;7.87;;
10144;SDS011;5113;41.822;23.564;2022-09-03T09:51:30;11.40;;;7.87;;
10144;SDS011;5113;41.822;23.564;2022-09-03T09:54:38;11.77;;;7.57;;
10144;SDS011;5113;41.822;23.564;2022-09-03T09:57:48;10.13;;;8.07;;
10144;SDS011;5113;41.822;23.564;2022-09-03T10:00:59;9.70;;;7.33;;
10144;SDS011;5113;41.822;23.564;2022-09-03T10:04:08;8.87;;;6.77;;
10144;SDS011;5113;41.822;23.564;2022-09-03T10:07:21;10.80;;;7.40;;
10144;SDS011;5113;41.822;23.564;2022-09-03T10:10:32;11.27;;;10.33;;
10144;SDS011;5113;41.822;23.564;2022-09-03T10:13:41;15.90;;;14.70;;
10144;SDS011;5113;41.822;23.564;2022-09-03T10:16:53;7.47;;;6.10;;
10144;SDS011;5113;41.822;23.564;2022-09-03T10:20:08;10.43;;;9.53;;
10144;SDS011;5113;41.822;23.564;2022-09-03T10:23:38;7.10;;;5.70;;
10144;SDS011;5113;41.822;23.564;2022-09-03T10:26:55;10.53;;;6.97;;
10144;SDS011;5113;41.822;23.564;2022-09-03T10:30:02;7.83;;;6.50;;
10144;SDS011;5113;41.822;23.564;2022-09-03T10:33:12;6.80;;;5.93;;
10144;SDS011;5113;41.822;23.564;2022-09-03T10:36:24;8.83;;;6.07;;
10144;SDS011;5113;41.822;23.564;2022-09-03T10:39:36;7.27;;;6.50;;
10144;SDS011;5113;41.822;23.564;2022-09-03T10:43:02;6.50;;;5.67;;
10144;SDS011;5113;41.822;23.564;2022-09-03T10:46:21;6.10;;;5.50;;
10144;SDS011;5113;41.822;23.564;2022-09-03T10:49:35;8.23;;;6.33;;
10144;SDS011;5113;41.822;23.564;2022-09-03T10:52:58;9.40;;;8.60;;
10144;SDS011;5113;41.822;23.564;2022-09-03T10:56:16;8.33;;;5.97;;
10144;SDS011;5113;41.822;23.564;2022-09-03T10:59:34;15.37;;;10.73;;
10144;SDS011;5113;41.822;23.564;2022-09-03T11:02:58;5.87;;;5.27;;
10144;SDS011;5113;41.822;23.564;2022-09-03T11:06:27;9.90;;;9.20;;
10144;SDS011;5113;41.822;23.564;2022-09-03T11:09:36;6.50;;;5.70;;
10144;SDS011;5113;41.822;23.564;2022-09-03T11:12:47;13.87;;;13.03;;
10144;SDS011;5113;41.822;23.564;2022-09-03T11:16:02;9.33;;;8.53;;
10144;SDS011;5113;41.822;23.564;2022-09-03T11:19:16;6.40;;;5.00;;
10144;SDS011;5113;41.822;23.564;2022-09-03T11:22:25;13.70;;;12.90;;
10144;SDS011;5113;41.822;23.564;2022-09-03T11:25:33;12.50;;;11.77;;
10144;SDS011;5113;41.822;23.564;2022-09-03T11:28:43;4.47;;;4.07;;
10144;SDS011;5113;41.822;23.564;2022-09-03T11:32:02;5.57;;;4.87;;
10144;SDS011;5113;41.822;23.564;2022-09-03T11:35:15;7.17;;;6.67;;
10144;SDS011;5113;41.822;23.564;2022-09-03T11:38:29;5.67;;;4.77;;
10144;SDS011;5113;41.822;23.564;2022-09-03T11:41:35;6.55;;;5.10;;
10144;SDS011;5113;41.822;23.564;2022-09-03T11:44:43;5.40;;;4.88;;
10144;SDS011;5113;41.822;23.564;2022-09-03T11:47:56;5.13;;;4.53;;
10144;SDS011;5113;41.822;23.564;2022-09-03T11:51:03;10.10;;;5.07;;
10144;SDS011;5113;41.822;23.564;2022-09-03T11:54:24;6.53;;;6.00;;
10144;SDS011;5113;41.822;23.564;2022-09-03T11:57:31;4.88;;;4.38;;
10144;SDS011;5113;41.822;23.564;2022-09-03T12:00:45;4.67;;;4.27;;
10144;SDS011;5113;41.822;23.564;2022-09-03T12:03:58;4.47;;;4.15;;
10144;SDS011;5113;41.822;23.564;2022-09-03T12:07:19;4.23;;;3.93;;
10144;SDS011;5113;41.822;23.564;2022-09-03T12:10:45;4.83;;;4.47;;
10144;SDS011;5113;41.822;23.564;2022-09-03T12:13:59;4.53;;;4.23;;
10144;SDS011;5113;41.822;23.564;2022-09-03T12:17:18;6.97;;;6.30;;
10144;SDS011;5113;41.822;23.564;2022-09-03T12:20:34;3.57;;;3.27;;
10144;SDS011;5113;41.822;23.564;2022-09-03T12:23:41;4.37;;;4.07;;
10144;SDS011;5113;41.822;23.564;2022-09-03T12:26:49;3.73;;;3.50;;
10144;SDS011;5113;41.822;23.564;2022-09-03T12:29:55;4.17;;;3.87;;
10144;SDS011;5113;41.822;23.564;2022-09-03T12:33:04;3.33;;;3.03;;
10144;SDS011;5113;41.822;23.564;2022-09-03T12:36:13;4.57;;;4.17;;
10144;SDS011;5113;41.822;23.564;2022-09-03T12:39:20;3.47;;;3.17;;
10144;SDS011;5113;41.822;23.564;2022-09-03T12:42:48;3.63;;;3.33;;
10144;SDS011;5113;41.822;23.564;2022-09-03T12:45:55;3.00;;;2.80;;
10144;SDS011;5113;41.822;23.564;2022-09-03T12:49:17;3.90;;;3.60;;
10144;SDS011;5113;41.822;23.564;2022-09-03T12:52:42;2.93;;;2.73;;
10144;SDS011;5113;41.822;23.564;2022-09-03T12:55:51;3.42;;;3.13;;
10144;SDS011;5113;41.822;23.564;2022-09-03T12:59:01;3.90;;;3.50;;
10144;SDS011;5113;41.822;23.564;2022-09-03T13:02:13;3.47;;;3.17;;
10144;SDS011;5113;41.822;23.564;2022-09-03T13:05:26;3.50;;;3.20;;
10144;SDS011;5113;41.822;23.564;2022-09-03T13:08:39;2.93;;;2.73;;
10144;SDS011;5113;41.822;23.564;2022-09-03T13:11:50;2.70;;;2.60;;
10144;SDS011;5113;41.822;23.564;2022-09-03T13:15:04;5.07;;;3.05;;
10144;SDS011;5113;41.822;23.564;2022-09-03T13:18:16;2.65;;;2.50;;
10144;SDS011;5113;41.822;23.564;2022-09-03T13:21:31;5.85;;;5.55;;
10144;SDS011;5113;41.822;23.564;2022-09-03T13:28:28;2.72;;;2.53;;
10144;SDS011;5113;41.822;23.564;2022-09-03T13:31:45;2.60;;;2.40;;
10144;SDS011;5113;41.822;23.564;2022-09-03T13:34:56;4.53;;;2.57;;
10144;SDS011;5113;41.822;23.564;2022-09-03T13:38:08;2.43;;;2.30;;
10144;SDS011;5113;41.822;23.564;2022-09-03T13:41:29;2.60;;;2.40;;
10144;SDS011;5113;41.822;23.564;2022-09-03T13:44:43;2.95;;;2.80;;
10144;SDS011;5113;41.822;23.564;2022-09-03T13:47:55;2.60;;;2.40;;
10144;SDS011;5113;41.822;23.564;2022-09-03T13:51:23;2.22;;;2.13;;
10144;SDS011;5113;41.822;23.564;2022-09-03T13:54:33;2.85;;;2.65;;
10144;SDS011;5113;41.822;23.564;2022-09-03T13:57:54;3.28;;;3.05;;
10144;SDS011;5113;41.822;23.564;2022-09-03T14:01:09;2.35;;;2.20;;
10144;SDS011;5113;41.822;23.564;2022-09-03T14:04:24;2.13;;;2.03;;
10144;SDS011;5113;41.822;23.564;2022-09-03T14:07:51;3.60;;;3.30;;
10144;SDS011;5113;41.822;23.564;2022-09-03T14:11:11;2.63;;;2.50;;
10144;SDS011;5113;41.822;23.564;2022-09-03T14:14:33;6.72;;;2.20;;
10144;SDS011;5113;41.822;23.564;2022-09-03T14:17:47;2.30;;;2.20;;
10144;SDS011;5113;41.822;23.564;2022-09-03T14:21:00;4.82;;;3.92;;
10144;SDS011;5113;41.822;23.564;2022-09-03T14:24:10;4.25;;;2.90;;
10144;SDS011;5113;41.822;23.564;2022-09-03T14:27:22;3.05;;;2.85;;
10144;SDS011;5113;41.822;23.564;2022-09-03T14:30:36;3.38;;;3.15;;
10144;SDS011;5113;41.822;23.564;2022-09-03T14:33:49;3.45;;;3.15;;
10144;SDS011;5113;41.822;23.564;2022-09-03T14:37:04;4.23;;;3.30;;
10144;SDS011;5113;41.822;23.564;2022-09-03T14:40:21;3.00;;;2.80;;
10144;SDS011;5113;41.822;23.564;2022-09-03T14:43:45;3.05;;;2.85;;
10144;SDS011;5113;41.822;23.564;2022-09-03T14:47:13;3.35;;;3.10;;
10144;SDS011;5113;41.822;23.564;2022-09-03T14:50:36;3.70;;;3.40;;
10144;SDS011;5113;41.822;23.564;2022-09-03T14:57:37;4.10;;;3.80;;
10144;SDS011;5113;41.822;23.564;2022-09-03T15:00:55;3.27;;;2.97;;
10144;SDS011;5113;41.822;23.564;2022-09-03T15:07:45;3.10;;;2.90;;
10144;SDS011;5113;41.822;23.564;2022-09-03T15:10:58;3.90;;;3.60;;
10144;SDS011;5113;41.822;23.564;2022-09-03T15:14:08;3.77;;;3.27;;
10144;SDS011;5113;41.822;23.564;2022-09-03T15:17:24;3.43;;;3.13;;
10144;SDS011;5113;41.822;23.564;2022-09-03T15:20:44;5.80;;;5.30;;
10144;SDS011;5113;41.822;23.564;2022-09-03T15:23:56;4.90;;;3.40;;
10144;SDS011;5113;41.822;23.564;2022-09-03T15:27:12;3.40;;;3.20;;
10144;SDS011;5113;41.822;23.564;2022-09-03T15:30:41;3.57;;;3.27;;
10144;SDS011;5113;41.822;23.564;2022-09-03T15:33:56;4.07;;;3.67;;
10144;SDS011;5113;41.822;23.564;2022-09-03T15:37:22;3.30;;;3.10;;
10144;SDS011;5113;41.822;23.564;2022-09-03T15:40:33;4.63;;;3.43;;
10144;SDS011;5113;41.822;23.564;2022-09-03T15:43:45;8.40;;;7.70;;
10144;SDS011;5113;41.822;23.564;2022-09-03T15:46:55;3.77;;;3.47;;
10144;SDS011;5113;41.822;23.564;2022-09-03T15:50:06;6.30;;;3.40;;
10144;SDS011;5113;41.822;23.564;2022-09-03T15:53:29;5.70;;;4.90;;
10144;SDS011;5113;41.822;23.564;2022-09-03T15:56:40;3.47;;;3.17;;
10144;SDS011;5113;41.822;23.564;2022-09-03T15:59:53;5.13;;;3.57;;
10144;SDS011;5113;41.822;23.564;2022-09-03T16:03:07;4.77;;;4.37;;
10144;SDS011;5113;41.822;23.564;2022-09-03T16:06:29;4.83;;;4.60;;
10144;SDS011;5113;41.822;23.564;2022-09-03T16:09:47;4.63;;;3.07;;
10144;SDS011;5113;41.822;23.564;2022-09-03T16:13:26;3.13;;;2.83;;
10144;SDS011;5113;41.822;23.564;2022-09-03T16:16:46;4.33;;;3.93;;
10144;SDS011;5113;41.822;23.564;2022-09-03T16:20:02;3.73;;;3.30;;
10144;SDS011;5113;41.822;23.564;2022-09-03T16:23:12;3.63;;;3.33;;
10144;SDS011;5113;41.822;23.564;2022-09-03T16:26:24;3.90;;;3.40;;
10144;SDS011;5113;41.822;23.564;2022-09-03T16:29:37;5.70;;;5.33;;
10144;SDS011;5113;41.822;23.564;2022-09-03T16:32:51;3.97;;;3.60;;
10144;SDS011;5113;41.822;23.564;2022-09-03T16:36:12;3.20;;;3.00;;
10144;SDS011;5113;41.822;23.564;2022-09-03T16:39:38;7.53;;;3.00;;
10144;SDS011;5113;41.822;23.564;2022-09-03T16:42:59;3.27;;;2.90;;
10144;SDS011;5113;41.822;23.564;2022-09-03T16:46:33;3.23;;;3.03;;
10144;SDS011;5113;41.822;23.564;2022-09-03T16:49:47;4.40;;;4.00;;
10144;SDS011;5113;41.822;23.564;2022-09-03T16:53:02;4.53;;;3.90;;
10144;SDS011;5113;41.822;23.564;2022-09-03T16:56:18;3.83;;;3.50;;
10144;SDS011;5113;41.822;23.564;2022-09-03T16:59:56;4.53;;;4.13;;
10144;SDS011;5113;41.822;23.564;2022-09-03T17:03:19;4.07;;;3.43;;
10144;SDS011;5113;41.822;23.564;2022-09-03T17:06:41;5.47;;;4.03;;
10144;SDS011;5113;41.822;23.564;2022-09-03T17:10:02;4.23;;;3.60;;
10144;SDS011;5113;41.822;23.564;2022-09-03T17:16:54;8.57;;;7.93;;
10144;SDS011;5113;41.822;23.564;2022-09-03T17:20:11;2.83;;;2.53;;
10144;SDS011;5113;41.822;23.564;2022-09-03T17:23:28;6.13;;;4.00;;
10144;SDS011;5113;41.822;23.564;2022-09-03T17:26:48;3.53;;;3.23;;
10144;SDS011;5113;41.822;23.564;2022-09-03T17:30:02;4.10;;;3.80;;
10144;SDS011;5113;41.822;23.564;2022-09-03T17:37:12;9.17;;;4.43;;
10144;SDS011;5113;41.822;23.564;2022-09-03T17:40:28;5.23;;;3.67;;
10144;SDS011;5113;41.822;23.564;2022-09-03T17:43:45;3.90;;;3.33;;
10144;SDS011;5113;41.822;23.564;2022-09-03T17:47:02;3.93;;;3.20;;
10144;SDS011;5113;41.822;23.564;2022-09-03T17:50:17;3.57;;;3.27;;
10144;SDS011;5113;41.822;23.564;2022-09-03T17:53:32;3.17;;;2.87;;
10144;SDS011;5113;41.822;23.564;2022-09-03T17:56:48;6.30;;;3.93;;
10144;SDS011;5113;41.822;23.564;2022-09-03T18:00:00;4.17;;;2.40;;
10144;SDS011;5113;41.822;23.564;2022-09-03T18:03:11;4.30;;;3.90;;
10144;SDS011;5113;41.822;23.564;2022-09-03T18:06:26;4.40;;;4.00;;
10144;SDS011;5113;41.822;23.564;2022-09-03T18:09:41;6.50;;;4.43;;
10144;SDS011;5113;41.822;23.564;2022-09-03T18:12:57;7.17;;;4.00;;
10144;SDS011;5113;41.822;23.564;2022-09-03T18:16:13;7.33;;;3.50;;
10144;SDS011;5113;41.822;23.564;2022-09-03T18:19:27;7.40;;;6.90;;
10144;SDS011;5113;41.822;23.564;2022-09-03T18:22:58;3.73;;;3.40;;
10144;SDS011;5113;41.822;23.564;2022-09-03T18:26:28;3.73;;;3.30;;
10144;SDS011;5113;41.822;23.564;2022-09-03T18:29:58;3.93;;;2.90;;
10144;SDS011;5113;41.822;23.564;2022-09-03T18:33:24;5.23;;;4.83;;
10144;SDS011;5113;41.822;23.564;2022-09-03T18:36:49;3.43;;;3.20;;
10144;SDS011;5113;41.822;23.564;2022-09-03T18:40:13;3.60;;;3.30;;
10144;SDS011;5113;41.822;23.564;2022-09-03T18:43:47;4.43;;;3.17;;
10144;SDS011;5113;41.822;23.564;2022-09-03T18:47:24;4.93;;;4.33;;
10144;SDS011;5113;41.822;23.564;2022-09-03T18:51:11;4.10;;;3.60;;
10144;SDS011;5113;41.822;23.564;2022-09-03T18:54:51;4.20;;;3.17;;
10144;SDS011;5113;41.822;23.564;2022-09-03T18:58:24;3.60;;;3.30;;
10144;SDS011;5113;41.822;23.564;2022-09-03T19:01:58;3.27;;;2.97;;
10144;SDS011;5113;41.822;23.564;2022-09-03T19:05:33;4.20;;;3.53;;
10144;SDS011;5113;41.822;23.564;2022-09-03T19:09:08;4.57;;;3.40;;
10144;SDS011;5113;41.822;23.564;2022-09-03T19:12:48;3.80;;;3.27;;
10144;SDS011;5113;41.822;23.564;2022-09-03T19:16:47;12.27;;;11.43;;
10144;SDS011;5113;41.822;23.564;2022-09-03T19:20:26;6.00;;;4.23;;
10144;SDS011;5113;41.822;23.564;2022-09-03T19:23:54;8.10;;;4.43;;
10144;SDS011;5113;41.822;23.564;2022-09-03T19:27:27;8.27;;;5.77;;
10144;SDS011;5113;41.822;23.564;2022-09-03T19:31:10;8.07;;;5.10;;
10144;SDS011;5113;41.822;23.564;2022-09-03T19:34:58;7.33;;;3.73;;
10144;SDS011;5113;41.822;23.564;2022-09-03T19:38:36;9.83;;;8.67;;
10144;SDS011;5113;41.822;23.564;2022-09-03T19:42:13;9.70;;;9.00;;